Time;durP1;ratioP1;P1;durP2;ratioP2;P2;SDS_P1;SDS_P2;PMS_P1;PMS_P2;Temp;Humidity;BMP_temperature;BMP_pressure;BME280_temperature;BME280_humidity;BME280_pressure;Samples;Min_cycle;Max_cycle;Signal;HPM_P1;HPM_P2
2022/11/29 00:01:32;;;;;;;;;;;;;;;5.98;100.00;100519.53;6247665;23;20358;-81
2022/11/29 00:03:59;;;;;;;;;;;;;;;6.16;100.00;100525.84;6266200;23;19907;-80
2022/11/29 00:06:26;;;;;;;;;;;;;;;6.21;100.00;100523.63;6247091;23;20315;-81
2022/11/29 00:08:52;;;;;;;;;;;;;;;6.53;100.00;100518.19;6246409;23;19911;-79
2022/11/29 00:14:06;;;;;;;;;;;;;;;6.47;100.00;100508.16;6246450;23;20033;-81
2022/11/29 00:16:31;;;;;;;;;;;;;;;6.44;100.00;100514.56;6246930;23;19912;-78
2022/11/29 00:18:57;;;;;;;;;;;;;;;6.43;100.00;100512.06;6246511;23;20381;-80
2022/11/29 00:21:22;;;;;;;;;;;;;;;6.41;100.00;100504.28;6246359;23;19966;-80
2022/11/29 00:23:47;;;;;;;;;;;;;;;6.39;100.00;100505.41;6246814;23;19911;-83
2022/11/29 00:26:13;;;;;;;;;;;;;;;6.41;100.00;100508.72;6219251;23;19954;-83
2022/11/29 00:28:38;;;;;;;;;;;;;;;6.56;100.00;100510.00;6247737;23;20180;-81
2022/11/29 00:31:14;;;;;;;;;;;;;;;6.48;100.00;100507.22;6246156;23;19923;-81
2022/11/29 00:33:39;;;;;;;;;;;;;;;6.51;100.00;100505.16;6246947;23;19911;-82
2022/11/29 00:36:05;;;;;;;;;;;;;;;6.74;100.00;100513.63;6246972;23;19966;-83
2022/11/29 00:38:30;;;;;;;;;;;;;;;6.54;100.00;100510.13;6245507;23;19966;-82
2022/11/29 00:40:56;;;;;;;;;;;;;;;6.60;100.00;100503.47;6219916;23;19986;-80
2022/11/29 00:43:21;;;;;;;;;;;;;;;6.46;100.00;100502.09;6246883;23;19912;-80
2022/11/29 00:45:46;;;;;;;;;;;;;;;6.53;100.00;100508.47;6246740;23;19912;-79
2022/11/29 00:48:14;;;;;;;;;;;;;;;6.76;100.00;100515.13;6246387;23;19907;-79
2022/11/29 00:50:40;;;;;;;;;;;;;;;6.59;100.00;100517.63;6246299;23;20338;-82
2022/11/29 00:53:05;;;;;;;;;;;;;;;6.60;100.00;100517.47;6246561;23;19998;-81
2022/11/29 00:55:31;;;;;;;;;;;;;;;6.77;100.00;100513.34;6246855;23;20278;-82
2022/11/29 00:57:59;;;;;;;;;;;;;;;6.70;100.00;100505.16;6246387;23;19990;-81
2022/11/29 01:00:24;;;;;;;;;;;;;;;6.52;100.00;100505.97;6218897;23;19969;-80
2022/11/29 01:02:49;;;;;;;;;;;;;;;6.48;100.00;100505.41;6246610;23;19994;-82
2022/11/29 01:05:18;;;;;;;;;;;;;;;6.40;100.00;100505.25;6244906;23;19919;-80
2022/11/29 01:07:43;;;;;;;;;;;;;;;6.52;100.00;100505.97;6244762;23;19915;-82
2022/11/29 01:10:09;;;;;;;;;;;;;;;6.41;100.00;100513.97;6245553;23;19916;-82
2022/11/29 01:12:38;;;;;;;;;;;;;;;6.53;100.00;100507.66;6245719;23;19990;-83
2022/11/29 01:15:04;;;;;;;;;;;;;;;6.58;100.00;100511.53;6246131;23;19907;-82
2022/11/29 01:17:30;;;;;;;;;;;;;;;6.75;100.00;100513.50;6221192;23;19994;-86
2022/11/29 01:19:59;;;;;;;;;;;;;;;6.72;100.00;100516.41;6245878;23;19907;-80
2022/11/29 01:22:24;;;;;;;;;;;;;;;6.55;100.00;100509.19;6217978;23;19927;-84
2022/11/29 01:24:49;;;;;;;;;;;;;;;6.62;100.00;100510.28;6245741;23;20238;-80
2022/11/29 01:27:15;;;;;;;;;;;;;;;6.66;100.00;100509.03;6250097;23;19999;-79
2022/11/29 01:29:40;;;;;;;;;;;;;;;6.66;100.00;100514.28;6261144;23;19969;-82
2022/11/29 01:32:05;;;;;;;;;;;;;;;6.79;100.00;100511.41;6219124;23;19990;-84
2022/11/29 01:34:31;;;;;;;;;;;;;;;6.76;100.00;100509.06;6245967;23;19990;-81
2022/11/29 01:36:56;;;;;;;;;;;;;;;6.81;100.00;100508.63;6245548;23;19911;-83
2022/11/29 01:39:21;;;;;;;;;;;;;;;6.72;100.00;100500.59;6246007;23;20016;-83
2022/11/29 01:41:47;;;;;;;;;;;;;;;6.68;100.00;100501.00;6245791;23;19968;-80
2022/11/29 01:44:12;;;;;;;;;;;;;;;6.65;100.00;100496.00;6245918;23;20293;-83
2022/11/29 01:46:39;;;;;;;;;;;;;;;6.67;100.00;100494.91;6246087;23;19990;-83
2022/11/29 01:49:11;;;;;;;;;;;;;;;6.69;100.00;100497.41;6246067;23;19911;-80
2022/11/29 01:51:39;;;;;;;;;;;;;;;6.64;100.00;100494.34;6245994;23;19918;-81
2022/11/29 01:54:05;;;;;;;;;;;;;;;6.58;100.00;100485.19;6245733;23;19918;-83
2022/11/29 01:56:32;;;;;;;;;;;;;;;6.78;100.00;100490.47;6245793;23;19911;-80
2022/11/29 01:58:59;;;;;;;;;;;;;;;6.74;100.00;100493.38;6245296;23;19911;-81
2022/11/29 02:01:25;;;;;;;;;;;;;;;6.63;100.00;100493.50;6218710;23;20383;-83
2022/11/29 02:03:50;;;;;;;;;;;;;;;6.47;100.00;100480.06;6245730;23;19916;-82
2022/11/29 02:06:15;;;;;;;;;;;;;;;6.26;100.00;100481.97;6245822;23;19938;-82
2022/11/29 02:08:41;;;;;;;;;;;;;;;6.19;100.00;100488.75;6228731;23;19912;-81
2022/11/29 02:11:09;;;;;;;;;;;;;;;6.25;100.00;100482.94;6266216;23;19911;-80
2022/11/29 02:13:53;;;;;;;;;;;;;;;6.19;100.00;100481.69;6251342;23;19990;-84
2022/11/29 02:16:24;;;;;;;;;;;;;;;6.22;100.00;100483.22;6245255;23;19908;-83
2022/11/29 02:19:09;;;;;;;;;;;;;;;6.42;100.00;100484.06;6245222;23;19927;-82
2022/11/29 02:21:37;;;;;;;;;;;;;;;6.28;100.00;100490.56;6244788;23;19961;-82
2022/11/29 02:24:02;;;;;;;;;;;;;;;6.15;100.00;100487.34;6245994;23;19922;-83
2022/11/29 02:26:28;;;;;;;;;;;;;;;6.15;100.00;100477.66;6246738;23;19947;-84
2022/11/29 02:29:05;;;;;;;;;;;;;;;6.41;100.00;100477.13;6247483;23;19944;-86
2022/11/29 02:31:49;;;;;;;;;;;;;;;6.38;100.00;100480.88;6247159;23;19958;-84
2022/11/29 02:34:33;;;;;;;;;;;;;;;6.30;100.00;100472.81;6246981;23;19911;-88
2022/11/29 02:37:24;;;;;;;;;;;;;;;6.41;100.00;100477.13;6250034;23;19911;-87
2022/11/29 02:40:08;;;;;;;;;;;;;;;6.55;100.00;100467.06;6191929;23;19916;-88
2022/11/29 02:42:47;;;;;;;;;;;;;;;6.66;100.00;100471.34;6228498;23;19918;-82
2022/11/29 02:45:32;;;;;;;;;;;;;;;6.72;100.00;100468.16;6235556;23;19911;-83
2022/11/29 02:48:07;;;;;;;;;;;;;;;6.33;100.00;100467.28;6262246;23;19971;-81
2022/11/29 02:50:41;;;;;;;;;;;;;;;6.39;100.00;100473.81;6255685;23;19935;-84
2022/11/29 02:53:14;;;;;;;;;;;;;;;6.42;100.00;100461.22;6226108;23;19915;-89
2022/11/29 02:56:02;;;;;;;;;;;;;;;6.53;100.00;100465.53;6254938;23;19915;-89
2022/11/29 02:58:35;;;;;;;;;;;;;;;6.48;100.00;100465.94;6184987;23;19926;-88
2022/11/29 03:01:01;;;;;;;;;;;;;;;6.28;100.00;100460.78;6253231;23;19954;-88
2022/11/29 03:03:30;;;;;;;;;;;;;;;6.23;100.00;100458.56;6252181;23;20330;-88
2022/11/29 03:06:01;;;;;;;;;;;;;;;6.29;100.00;100463.28;6251864;23;19930;-87
2022/11/29 03:08:52;;;;;;;;;;;;;;;6.44;100.00;100468.97;6249899;23;20433;-89
2022/11/29 03:11:21;;;;;;;;;;;;;;;6.49;100.00;100464.97;6250015;23;19911;-88
2022/11/29 03:14:05;;;;;;;;;;;;;;;6.51;100.00;100463.03;6249208;23;19911;-86
2022/11/29 03:16:59;;;;;;;;;;;;;;;6.54;100.00;100465.38;6249203;23;19912;-85
2022/11/29 03:19:39;;;;;;;;;;;;;;;6.58;100.00;100469.41;6216550;23;19911;-84
2022/11/29 03:22:22;;;;;;;;;;;;;;;6.57;100.00;100475.63;6248422;23;19911;-84
2022/11/29 03:24:48;;;;;;;;;;;;;;;6.46;100.00;100467.88;6253414;23;19918;-85
2022/11/29 03:27:20;;;;;;;;;;;;;;;6.50;100.00;100463.97;6250704;23;19939;-84
2022/11/29 03:29:46;;;;;;;;;;;;;;;6.60;100.00;100467.44;6247762;23;19915;-85
2022/11/29 03:32:16;;;;;;;;;;;;;;;6.48;100.00;100471.19;6248389;23;20002;-84
2022/11/29 03:34:47;;;;;;;;;;;;;;;6.45;100.00;100474.09;6247751;23;20250;-81
2022/11/29 03:37:18;;;;;;;;;;;;;;;6.42;100.00;100471.75;6248356;23;19939;-84
2022/11/29 03:39:57;;;;;;;;;;;;;;;6.51;100.00;100468.28;6248522;23;19984;-84
2022/11/29 03:42:33;;;;;;;;;;;;;;;6.66;100.00;100471.34;6248475;23;19912;-84
2022/11/29 03:45:03;;;;;;;;;;;;;;;6.80;100.00;100472.72;6248068;23;20330;-83
2022/11/29 03:47:32;;;;;;;;;;;;;;;6.85;100.00;100476.63;6248437;23;20323;-83
2022/11/29 03:50:02;;;;;;;;;;;;;;;6.77;100.00;100468.56;6248004;23;19907;-84
2022/11/29 03:52:49;;;;;;;;;;;;;;;6.85;100.00;100465.25;6248478;23;19911;-83
2022/11/29 03:55:20;;;;;;;;;;;;;;;6.93;100.00;100468.81;6248877;23;19986;-85
2022/11/29 03:57:58;;;;;;;;;;;;;;;6.50;100.00;100469.25;6248159;23;19912;-84
2022/11/29 04:00:24;;;;;;;;;;;;;;;6.67;100.00;100460.66;6248299;23;19986;-82
2022/11/29 04:02:53;;;;;;;;;;;;;;;6.54;100.00;100467.16;6248143;23;19930;-84
2022/11/29 04:05:24;;;;;;;;;;;;;;;6.53;100.00;100468.97;6248288;23;19958;-83
2022/11/29 04:07:49;;;;;;;;;;;;;;;6.46;100.00;100467.88;6247568;23;19918;-82
2022/11/29 04:10:33;;;;;;;;;;;;;;;6.42;100.00;100463.84;6247847;23;19947;-85
2022/11/29 04:13:05;;;;;;;;;;;;;;;6.38;100.00;100462.44;6220944;23;20069;-85
2022/11/29 04:15:40;;;;;;;;;;;;;;;6.37;100.00;100465.22;6247649;23;19942;-83
2022/11/29 04:18:25;;;;;;;;;;;;;;;6.26;100.00;100468.81;6248660;23;19919;-84
2022/11/29 04:20:57;;;;;;;;;;;;;;;6.09;100.00;100466.84;6151135;23;19911;-85
2022/11/29 04:23:25;;;;;;;;;;;;;;;5.93;100.00;100469.16;6248331;23;19926;-83
2022/11/29 04:26:09;;;;;;;;;;;;;;;5.82;100.00;100470.03;6220888;23;20319;-86
2022/11/29 04:28:35;;;;;;;;;;;;;;;5.89;100.00;100465.09;6248404;23;19931;-84
2022/11/29 04:31:06;;;;;;;;;;;;;;;6.04;100.00;100461.97;6247625;23;19994;-85
2022/11/29 04:33:46;;;;;;;;;;;;;;;6.24;100.00;100466.31;6221134;23;20330;-86
2022/11/29 04:36:29;;;;;;;;;;;;;;;6.39;100.00;100464.13;6247558;23;19912;-87
2022/11/29 04:39:13;;;;;;;;;;;;;;;6.43;100.00;100464.69;6247753;23;19911;-84
2022/11/29 04:41:41;;;;;;;;;;;;;;;6.62;100.00;100465.53;6248343;23;20327;-83
2022/11/29 04:44:07;;;;;;;;;;;;;;;6.47;100.00;100458.16;6195506;23;20307;-83
2022/11/29 04:46:38;;;;;;;;;;;;;;;6.61;100.00;100463.84;6245856;23;19919;-85
2022/11/29 04:49:20;;;;;;;;;;;;;;;6.78;100.00;100472.03;6247362;23;19911;-83
2022/11/29 04:52:03;;;;;;;;;;;;;;;6.91;100.00;100464.69;6246780;23;19997;-84
2022/11/29 04:54:28;;;;;;;;;;;;;;;6.61;100.00;100463.84;6246851;23;19942;-84
2022/11/29 04:57:04;;;;;;;;;;;;;;;6.42;100.00;100463.00;6246631;23;19912;-85
2022/11/29 04:59:43;;;;;;;;;;;;;;;6.38;100.00;100461.63;6247883;23;19915;-84
2022/11/29 05:02:29;;;;;;;;;;;;;;;6.09;100.00;100466.84;6248739;23;19982;-84
2022/11/29 05:05:06;;;;;;;;;;;;;;;5.99;100.00;100465.97;6221079;23;19911;-85
2022/11/29 05:07:38;;;;;;;;;;;;;;;6.12;100.00;100466.56;6247222;23;19946;-85
2022/11/29 05:10:03;;;;;;;;;;;;;;;6.11;100.00;100459.63;6247457;23;19911;-85
2022/11/29 05:12:40;;;;;;;;;;;;;;;6.18;100.00;100463.38;6247300;23;20215;-86
2022/11/29 05:15:24;;;;;;;;;;;;;;;6.30;100.00;100474.66;6247314;23;19978;-85
2022/11/29 05:17:55;;;;;;;;;;;;;;;6.24;100.00;100466.31;6247047;23;19911;-83
2022/11/29 05:20:20;;;;;;;;;;;;;;;6.14;100.00;100462.00;6220322;23;19911;-84
2022/11/29 05:22:52;;;;;;;;;;;;;;;6.18;100.00;100466.03;6246979;23;19918;-88
2022/11/29 05:25:36;;;;;;;;;;;;;;;6.19;100.00;100463.25;6219607;23;20334;-80
2022/11/29 05:28:07;;;;;;;;;;;;;;;6.22;100.00;100467.41;6246965;23;19957;-81
2022/11/29 05:30:54;;;;;;;;;;;;;;;6.25;100.00;100472.41;6246811;23;19915;-82
2022/11/29 05:33:27;;;;;;;;;;;;;;;6.31;100.00;100471.84;6221920;23;20238;-83
2022/11/29 05:35:59;;;;;;;;;;;;;;;6.28;100.00;100474.75;6250346;23;19911;-84
2022/11/29 05:38:34;;;;;;;;;;;;;;;6.35;100.00;100468.00;6247628;23;19912;-81
2022/11/29 05:41:14;;;;;;;;;;;;;;;6.31;100.00;100466.59;6247102;23;19946;-84
2022/11/29 05:43:47;;;;;;;;;;;;;;;6.14;100.00;100464.63;6222431;23;19990;-80
2022/11/29 05:46:12;;;;;;;;;;;;;;;6.12;100.00;100470.03;6258097;23;19911;-82
2022/11/29 05:48:46;;;;;;;;;;;;;;;6.09;100.00;100464.19;6248387;23;19930;-81
2022/11/29 05:51:17;;;;;;;;;;;;;;;5.92;100.00;100468.31;6219503;23;19947;-81
2022/11/29 05:53:45;;;;;;;;;;;;;;;5.88;100.00;100463.44;6246836;23;19958;-80
2022/11/29 05:56:23;;;;;;;;;;;;;;;5.85;100.00;100472.41;6246273;23;19939;-87
2022/11/29 05:58:53;;;;;;;;;;;;;;;5.84;100.00;100473.34;6246220;23;19923;-86
2022/11/29 06:01:18;;;;;;;;;;;;;;;5.89;100.00;100473.00;6246816;23;19915;-83
2022/11/29 06:04:02;;;;;;;;;;;;;;;6.01;100.00;100470.13;6246672;23;19957;-81
2022/11/29 06:06:31;;;;;;;;;;;;;;;6.11;100.00;100470.16;6246651;23;20215;-82
2022/11/29 06:09:07;;;;;;;;;;;;;;;6.05;100.00;100473.31;6246189;23;19935;-82
2022/11/29 06:11:52;;;;;;;;;;;;;;;6.13;100.00;100473.50;6222209;23;20259;-80
2022/11/29 06:14:40;;;;;;;;;;;;;;;6.34;100.00;100478.66;6247143;23;19911;-80
2022/11/29 06:17:24;;;;;;;;;;;;;;;6.21;100.00;100476.28;6176895;23;19915;-84
2022/11/29 06:19:52;;;;;;;;;;;;;;;6.26;100.00;100481.97;6247189;23;19912;-82
2022/11/29 06:22:20;;;;;;;;;;;;;;;6.14;100.00;100475.13;6246588;23;19916;-84
2022/11/29 06:24:55;;;;;;;;;;;;;;;6.07;100.00;100480.09;6246505;23;19908;-87
2022/11/29 06:27:28;;;;;;;;;;;;;;;6.08;100.00;100480.94;6247303;23;19931;-85
2022/11/29 06:29:56;;;;;;;;;;;;;;;6.06;100.00;100481.09;6249971;23;19922;-84
2022/11/29 06:32:41;;;;;;;;;;;;;;;5.94;100.00;100483.94;6251811;23;19911;-84
2022/11/29 06:35:25;;;;;;;;;;;;;;;6.04;100.00;100495.31;6267365;23;19911;-83
2022/11/29 06:37:54;;;;;;;;;;;;;;;5.96;100.00;100495.19;6243483;23;19918;-85
2022/11/29 06:40:20;;;;;;;;;;;;;;;5.94;100.00;100489.19;6262872;23;19911;-84
2022/11/29 06:42:45;;;;;;;;;;;;;;;6.05;100.00;100502.25;6256584;23;19916;-86
2022/11/29 06:45:12;;;;;;;;;;;;;;;6.02;100.00;100497.28;6235901;23;19956;-84
2022/11/29 06:47:44;;;;;;;;;;;;;;;6.00;100.00;100500.03;6227630;23;19957;-83
2022/11/29 06:50:28;;;;;;;;;;;;;;;5.92;100.00;100501.66;6248305;23;19920;-84
2022/11/29 06:53:12;;;;;;;;;;;;;;;5.89;100.00;100500.13;6246055;23;19911;-82
2022/11/29 06:55:41;;;;;;;;;;;;;;;5.89;100.00;100502.78;6247570;23;19965;-82
2022/11/29 06:58:25;;;;;;;;;;;;;;;5.82;100.00;100508.66;6247765;23;19944;-84
2022/11/29 07:00:58;;;;;;;;;;;;;;;5.79;100.00;100506.28;6247667;23;19916;-84
2022/11/29 07:03:41;;;;;;;;;;;;;;;5.73;100.00;100508.47;6247031;23;19912;-84
2022/11/29 07:06:19;;;;;;;;;;;;;;;5.69;100.00;100511.50;6220736;23;19911;-82
2022/11/29 07:08:46;;;;;;;;;;;;;;;5.73;100.00;100508.47;6247854;23;19949;-84
2022/11/29 07:11:12;;;;;;;;;;;;;;;5.82;100.00;100516.53;6232722;23;19914;-82
2022/11/29 07:13:38;;;;;;;;;;;;;;;5.89;100.00;100509.81;6258314;22;19916;-82
2022/11/29 07:16:03;;;;;;;;;;;;;;;5.85;100.00;100514.47;6247314;23;19911;-83
2022/11/29 07:18:28;;;;;;;;;;;;;;;5.98;100.00;100520.38;6246588;23;19922;-82
2022/11/29 07:21:06;;;;;;;;;;;;;;;5.97;100.00;100517.88;6247591;23;19915;-82
2022/11/29 07:23:39;;;;;;;;;;;;;;;6.02;100.00;100523.59;6248014;23;19973;-82
2022/11/29 07:26:08;;;;;;;;;;;;;;;5.93;100.00;100522.56;6247513;23;19915;-83
2022/11/29 07:28:33;;;;;;;;;;;;;;;6.05;100.00;100518.06;6248443;23;19916;-82
2022/11/29 07:31:05;;;;;;;;;;;;;;;6.06;100.00;100525.81;6248903;23;19916;-83
2022/11/29 07:33:33;;;;;;;;;;;;;;;6.06;100.00;100517.94;6249776;23;19916;-82
2022/11/29 07:36:09;;;;;;;;;;;;;;;6.11;100.00;100526.25;6249903;23;19911;-84
2022/11/29 07:38:42;;;;;;;;;;;;;;;6.13;100.00;100526.13;6248872;23;19912;-84
2022/11/29 07:41:23;;;;;;;;;;;;;;;6.20;100.00;100527.22;6248589;23;20315;-82
2022/11/29 07:44:00;;;;;;;;;;;;;;;6.24;100.00;100524.19;6220322;23;19911;-84
2022/11/29 07:46:27;;;;;;;;;;;;;;;6.20;100.00;100521.97;6252398;23;20357;-84
2022/11/29 07:48:53;;;;;;;;;;;;;;;6.25;100.00;100519.78;6254074;23;19911;-82
2022/11/29 07:51:18;;;;;;;;;;;;;;;6.23;100.00;100529.63;6251281;23;19937;-83
2022/11/29 07:53:44;;;;;;;;;;;;;;;6.35;100.00;100525.91;6248797;23;19907;-84
2022/11/29 07:56:11;;;;;;;;;;;;;;;6.24;100.00;100524.19;6223112;23;20033;-84
2022/11/29 07:58:36;;;;;;;;;;;;;;;6.23;100.00;100535.69;6247613;23;19922;-85
2022/11/29 08:01:02;;;;;;;;;;;;;;;6.17;100.00;100530.97;6247274;23;19990;-83
2022/11/29 08:03:28;;;;;;;;;;;;;;;6.20;100.00;100527.22;6245710;23;19915;-86
2022/11/29 08:05:53;;;;;;;;;;;;;;;6.29;100.00;100529.06;6247339;23;19911;-83
2022/11/29 08:08:19;;;;;;;;;;;;;;;6.36;100.00;100529.38;6220456;23;19919;-83
2022/11/29 08:10:44;;;;;;;;;;;;;;;6.37;100.00;100534.47;6247541;23;19911;-82
2022/11/29 08:13:09;;;;;;;;;;;;;;;6.32;100.00;100536.69;6246445;23;19923;-84
2022/11/29 08:15:35;;;;;;;;;;;;;;;6.25;100.00;100540.84;6247687;23;19908;-83
2022/11/29 08:18:01;;;;;;;;;;;;;;;6.15;100.00;100539.97;6249256;23;19911;-85
2022/11/29 08:22:54;;;;;;;;;;;;;;;6.24;100.00;100544.41;6219504;23;19944;-85
2022/11/29 08:25:19;;;;;;;;;;;;;;;6.26;100.00;100542.50;6227528;23;19922;-85
2022/11/29 08:27:44;;;;;;;;;;;;;;;6.15;100.00;100539.97;6221034;23;19907;-81
2022/11/29 08:30:10;;;;;;;;;;;;;;;6.28;100.00;100540.56;6246536;23;19997;-81
2022/11/29 08:32:35;;;;;;;;;;;;;;;6.24;100.00;100552.31;6246766;23;19943;-83
2022/11/29 08:35:01;;;;;;;;;;;;;;;6.23;100.00;100554.09;6246204;23;19919;-85
2022/11/29 08:37:27;;;;;;;;;;;;;;;6.23;100.00;100542.78;6246794;23;19947;-88
2022/11/29 08:39:52;;;;;;;;;;;;;;;6.22;100.00;100551.63;6246153;23;19918;-87
2022/11/29 08:42:17;;;;;;;;;;;;;;;6.19;100.00;100552.72;6246288;23;19912;-86
2022/11/29 08:44:43;;;;;;;;;;;;;;;6.17;100.00;100549.38;6246714;23;19969;-87
2022/11/29 08:50:02;;;;;;;;;;;;;;;6.53;100.00;100555.03;6246839;23;19918;-88
2022/11/29 08:55:18;;;;;;;;;;;;;;;6.39;100.00;100565.94;6219754;23;19911;-86
2022/11/29 08:57:44;;;;;;;;;;;;;;;6.48;100.00;100560.69;6244378;23;19919;-85
2022/11/29 09:00:09;;;;;;;;;;;;;;;6.48;100.00;100568.59;6247158;23;19911;-83
2022/11/29 09:02:35;;;;;;;;;;;;;;;6.40;100.00;100567.59;6247389;23;20235;-84
2022/11/29 09:05:01;;;;;;;;;;;;;;;6.35;100.00;100570.66;6246391;23;19923;-87
2022/11/29 09:07:26;;;;;;;;;;;;;;;6.34;100.00;100576.03;6246332;23;19915;-87
2022/11/29 09:09:52;;;;;;;;;;;;;;;6.27;100.00;100569.63;6245596;23;19912;-85
2022/11/29 09:12:17;;;;;;;;;;;;;;;6.41;100.00;100572.75;6247616;23;19990;-86
2022/11/29 09:14:42;;;;;;;;;;;;;;;6.49;100.00;100578.19;6247906;23;19916;-85
2022/11/29 09:17:08;;;;;;;;;;;;;;;6.41;100.00;100585.91;6246434;23;19990;-84
2022/11/29 09:19:33;;;;;;;;;;;;;;;6.23;100.00;100574.34;6246905;23;19911;-88
2022/11/29 09:21:58;;;;;;;;;;;;;;;6.18;100.00;100582.63;6248446;23;19946;-87
2022/11/29 09:24:24;;;;;;;;;;;;;;;6.39;100.00;100587.00;6247233;23;20349;-86
2022/11/29 09:26:50;;;;;;;;;;;;;;;6.32;100.00;100584.06;6246838;23;19935;-87
2022/11/29 09:29:15;;;;;;;;;;;;;;;6.34;100.00;100587.41;6246981;23;19911;-88
2022/11/29 09:31:43;;;;;;;;;;;;;;;6.33;100.00;100585.72;6246874;23;19943;-87
2022/11/29 09:34:11;;;;;;;;;;;;;;;6.28;100.00;100593.19;6246993;23;20233;-85
2022/11/29 09:36:37;;;;;;;;;;;;;;;6.20;100.00;100585.94;6246512;23;19907;-87
2022/11/29 09:39:02;;;;;;;;;;;;;;;6.14;100.00;100590.91;6220428;23;19925;-87
2022/11/29 09:41:41;;;;;;;;;;;;;;;6.15;100.00;100592.59;6246789;23;19908;-86
2022/11/29 09:44:25;;;;;;;;;;;;;;;6.20;100.00;100595.63;6244549;23;20246;-86
2022/11/29 09:46:56;;;;;;;;;;;;;;;6.09;100.00;100596.59;6219617;23;19919;-87
2022/11/29 09:49:42;;;;;;;;;;;;;;;6.09;100.00;100590.50;6194472;23;19915;-86
2022/11/29 09:52:15;;;;;;;;;;;;;;;6.08;100.00;100588.81;6173850;23;19964;-86
2022/11/29 09:54:55;;;;;;;;;;;;;;;6.14;100.00;100585.66;6246095;23;19948;-86
2022/11/29 09:57:22;;;;;;;;;;;;;;;6.19;100.00;100588.72;6219394;23;20169;-87
2022/11/29 09:59:50;;;;;;;;;;;;;;;6.31;100.00;100587.66;6246696;23;20255;-87
2022/11/29 10:02:19;;;;;;;;;;;;;;;6.33;100.00;100592.81;6246296;23;19912;-86
2022/11/29 10:04:48;;;;;;;;;;;;;;;6.44;100.00;100588.25;6246444;23;19927;-88
2022/11/29 10:07:17;;;;;;;;;;;;;;;6.42;100.00;100590.22;6246238;23;19915;-86
2022/11/29 10:09:45;;;;;;;;;;;;;;;6.33;100.00;100584.91;6219254;23;19926;-90
2022/11/29 10:12:17;;;;;;;;;;;;;;;6.33;100.00;100585.72;6246900;23;19911;-85
2022/11/29 10:14:56;;;;;;;;;;;;;;;6.30;100.00;100585.19;6219434;23;20307;-86
2022/11/29 10:17:27;;;;;;;;;;;;;;;6.18;100.00;100590.53;6217797;23;19958;-85
2022/11/29 10:19:59;;;;;;;;;;;;;;;6.13;100.00;100574.28;6244903;23;19919;-85
2022/11/29 10:22:35;;;;;;;;;;;;;;;6.29;100.00;100584.34;6246656;23;20311;-87
2022/11/29 10:25:01;;;;;;;;;;;;;;;6.26;100.00;100587.25;6220689;23;20326;-89
2022/11/29 10:27:28;;;;;;;;;;;;;;;6.48;100.00;100587.03;6246878;23;19918;-88
2022/11/29 10:29:54;;;;;;;;;;;;;;;6.43;100.00;100581.31;6248888;23;19922;-84
2022/11/29 10:32:22;;;;;;;;;;;;;;;6.54;100.00;100583.00;6226152;23;19943;-88
2022/11/29 10:34:48;;;;;;;;;;;;;;;6.47;100.00;100577.47;6220860;23;19911;-88
2022/11/29 10:37:16;;;;;;;;;;;;;;;6.62;100.00;100576.13;6247292;23;19926;-89
2022/11/29 10:39:49;;;;;;;;;;;;;;;6.68;100.00;100567.69;6220908;23;19919;-91
2022/11/29 10:45:19;;;;;;;;;;;;;;;6.81;100.00;100567.41;6220503;23;19981;-90
2022/11/29 10:47:46;;;;;;;;;;;;;;;6.73;100.00;100567.25;6247232;23;19912;-89
2022/11/29 10:50:38;;;;;;;;;;;;;;;6.74;100.00;100569.75;6246355;23;19916;-88
2022/11/29 10:53:08;;;;;;;;;;;;;;;6.67;100.00;100573.91;6241342;23;19915;-88
2022/11/29 10:55:57;;;;;;;;;;;;;;;6.57;100.00;100564.31;6246786;23;20419;-87
2022/11/29 10:58:24;;;;;;;;;;;;;;;6.48;100.00;100563.34;6258415;23;19911;-84
2022/11/29 11:00:54;;;;;;;;;;;;;;;6.57;100.00;100566.94;6266641;23;19930;-88
2022/11/29 11:03:19;;;;;;;;;;;;;;;6.55;100.00;100559.19;6272757;22;19919;-88
2022/11/29 11:05:58;;;;;;;;;;;;;;;6.82;100.00;100560.34;6235620;23;19926;-89
2022/11/29 11:08:25;;;;;;;;;;;;;;;6.60;100.00;100554.34;6245900;23;19965;-87
2022/11/29 11:10:52;;;;;;;;;;;;;;;6.52;100.00;100550.75;6247563;23;19911;-88
2022/11/29 11:13:23;;;;;;;;;;;;;;;6.46;100.00;100565.28;6219761;23;20323;-88
2022/11/29 11:15:54;;;;;;;;;;;;;;;6.47;100.00;100550.28;6247164;23;20326;-88
2022/11/29 11:18:21;;;;;;;;;;;;;;;6.72;100.00;100555.91;6249167;23;19911;-88
2022/11/29 11:20:53;;;;;;;;;;;;;;;6.70;100.00;100554.34;6246961;23;19915;-88
2022/11/29 11:23:26;;;;;;;;;;;;;;;6.74;100.00;100553.97;6246715;23;20302;-87
2022/11/29 11:25:55;;;;;;;;;;;;;;;7.03;100.00;100558.41;6246462;23;19915;-88
2022/11/29 11:28:27;;;;;;;;;;;;;;;7.27;100.00;100557.03;6248340;23;20373;-87
2022/11/29 11:30:54;;;;;;;;;;;;;;;7.27;100.00;100566.72;6246749;23;19919;-89
2022/11/29 11:33:23;;;;;;;;;;;;;;;6.98;100.00;100558.00;6248441;23;19911;-87
2022/11/29 11:36:06;;;;;;;;;;;;;;;6.86;100.00;100559.13;6221754;23;19935;-86
2022/11/29 11:38:50;;;;;;;;;;;;;;;6.71;100.00;100556.88;6221736;23;19915;-87
2022/11/29 11:41:15;;;;;;;;;;;;;;;6.72;100.00;100555.91;6222981;23;19934;-88
2022/11/29 11:43:42;;;;;;;;;;;;;;;6.83;100.00;100552.28;6248520;23;19994;-87
2022/11/29 11:46:08;;;;;;;;;;;;;;;6.78;100.00;100545.78;6250884;23;19911;-88
2022/11/29 11:48:33;;;;;;;;;;;;;;;6.71;100.00;100559.50;6248304;23;19986;-87
2022/11/29 11:50:59;;;;;;;;;;;;;;;6.88;100.00;100554.53;6222477;23;19915;-87
2022/11/29 11:53:28;;;;;;;;;;;;;;;7.10;100.00;100555.09;6253479;23;20349;-88
2022/11/29 11:56:00;;;;;;;;;;;;;;;7.34;100.00;100561.72;6249811;23;19911;-88
2022/11/29 11:58:45;;;;;;;;;;;;;;;7.27;100.00;100564.09;6252038;23;20298;-88
2022/11/29 12:01:11;;;;;;;;;;;;;;;7.13;100.00;100556.59;6257862;23;19956;-88
2022/11/29 12:03:57;;;;;;;;;;;;;;;7.06;100.00;100551.06;6271461;23;19895;-86
2022/11/29 12:06:22;;;;;;;;;;;;;;;7.00;100.00;100551.63;6270191;22;19911;-85
2022/11/29 12:08:48;;;;;;;;;;;;;;;6.82;100.00;100555.91;6271022;22;19976;-86
2022/11/29 12:11:15;;;;;;;;;;;;;;;6.84;100.00;100556.59;6245606;23;19915;-87
2022/11/29 12:13:44;;;;;;;;;;;;;;;6.68;100.00;100554.50;6267504;23;19955;-87
2022/11/29 12:16:16;;;;;;;;;;;;;;;6.74;100.00;100564.50;6251110;23;19930;-88
2022/11/29 12:18:50;;;;;;;;;;;;;;;6.73;100.00;100552.28;6249311;23;19973;-89
2022/11/29 12:21:17;;;;;;;;;;;;;;;6.75;100.00;100560.91;6247266;23;19955;-87
2022/11/29 12:23:48;;;;;;;;;;;;;;;6.90;100.00;100563.94;6248794;23;19986;-87
2022/11/29 12:26:17;;;;;;;;;;;;;;;6.88;100.00;100554.53;6221845;23;20353;-88
2022/11/29 12:28:43;;;;;;;;;;;;;;;6.93;100.00;100562.84;6222671;23;19966;-87
2022/11/29 12:31:12;;;;;;;;;;;;;;;6.85;100.00;100555.66;6246479;23;20227;-89
2022/11/29 12:33:46;;;;;;;;;;;;;;;6.88;100.00;100565.06;6221492;23;19955;-87
2022/11/29 12:36:16;;;;;;;;;;;;;;;6.88;100.00;100557.16;6221211;23;19912;-87
2022/11/29 12:38:56;;;;;;;;;;;;;;;6.88;100.00;100557.16;6248875;23;19915;-90
2022/11/29 12:41:36;;;;;;;;;;;;;;;6.81;100.00;100558.69;6247722;23;20296;-88
2022/11/29 12:44:20;;;;;;;;;;;;;;;6.88;100.00;100551.91;6247650;23;19911;-88
2022/11/29 12:47:11;;;;;;;;;;;;;;;6.76;100.00;100553.84;6220973;23;19918;-87
2022/11/29 12:49:55;;;;;;;;;;;;;;;6.75;100.00;100555.63;6201472;23;19912;-89
2022/11/29 12:52:34;;;;;;;;;;;;;;;6.72;100.00;100555.91;6247198;23;20247;-87
2022/11/29 12:55:07;;;;;;;;;;;;;;;6.71;100.00;100558.66;6247309;23;19919;-85
2022/11/29 12:57:37;;;;;;;;;;;;;;;6.71;100.00;100554.22;6247806;23;19919;-85
2022/11/29 13:00:13;;;;;;;;;;;;;;;6.83;100.00;100562.03;6221362;23;19911;-87
2022/11/29 13:02:45;;;;;;;;;;;;;;;6.75;100.00;100555.63;6246362;23;19912;-89
2022/11/29 13:05:26;;;;;;;;;;;;;;;6.84;100.00;100556.59;6221658;23;19911;-86
2022/11/29 13:07:57;;;;;;;;;;;;;;;6.92;100.00;100551.50;6221198;23;19990;-87
2022/11/29 13:10:29;;;;;;;;;;;;;;;6.77;100.00;100552.84;6248031;23;20327;-84